createdAt,value
2023-02-11T00:00:44.742Z,48.31
2023-02-11T00:03:11.463Z,49.03
2023-02-11T00:05:38.177Z,50.04
2023-02-11T00:08:05.018Z,49.10
2023-02-11T00:10:31.692Z,49.40
2023-02-11T00:12:58.314Z,49.24
2023-02-11T00:15:24.959Z,50.31
2023-02-11T00:17:51.617Z,49.78
2023-02-11T00:20:18.264Z,50.37
2023-02-11T00:22:45.429Z,50.79
2023-02-11T00:25:12.043Z,50.19
2023-02-11T00:27:38.695Z,49.99
2023-02-11T00:30:05.743Z,49.06
2023-02-11T00:32:32.836Z,50.04
2023-02-11T00:34:59.512Z,50.09
2023-02-11T00:37:26.123Z,49.05
2023-02-11T00:39:52.757Z,48.57
2023-02-11T00:42:19.425Z,47.60
2023-02-11T00:44:46.025Z,47.90
2023-02-11T00:47:12.827Z,48.13
2023-02-11T00:49:40.453Z,47.54
2023-02-11T00:52:07.576Z,47.81
2023-02-11T00:54:34.265Z,48.50
2023-02-11T00:57:01.156Z,50.02
2023-02-11T00:59:28.112Z,50.32
2023-02-11T01:01:54.807Z,50.34
2023-02-11T01:04:21.538Z,50.94
2023-02-11T01:06:48.141Z,50.91
2023-02-11T01:09:16.115Z,49.68
2023-02-11T01:11:42.757Z,48.86
2023-02-11T01:14:09.480Z,49.01
2023-02-11T01:16:36.215Z,48.70
2023-02-11T01:19:03.030Z,50.27
2023-02-11T01:21:29.720Z,49.37
2023-02-11T01:23:56.324Z,48.59
2023-02-11T01:26:22.929Z,49.09
2023-02-11T01:28:49.574Z,48.87
2023-02-11T01:31:16.230Z,49.51
2023-02-11T01:33:43.050Z,49.42
2023-02-11T01:36:11.311Z,48.93
2023-02-11T01:38:38.232Z,50.35
2023-02-11T01:41:08.365Z,50.00
2023-02-11T01:43:55.047Z,48.43
2023-02-11T01:46:38.014Z,49.07
2023-02-11T01:49:09.596Z,48.04
2023-02-11T01:51:47.358Z,49.31
2023-02-11T01:54:36.958Z,48.55
2023-02-11T01:57:24.957Z,48.65
2023-02-11T02:00:09.854Z,47.96
2023-02-11T02:03:02.416Z,49.12
2023-02-11T02:05:35.778Z,48.66
2023-02-11T02:08:29.557Z,48.25
2023-02-11T02:10:58.526Z,48.09
2023-02-11T02:13:25.973Z,47.81
2023-02-11T02:15:55.198Z,49.00
2023-02-11T02:18:32.423Z,50.36
2023-02-11T02:21:08.134Z,49.85
2023-02-11T02:23:59.456Z,48.90
2023-02-11T02:26:57.147Z,48.41
2023-02-11T02:29:43.943Z,48.31
2023-02-11T02:32:31.743Z,47.91
2023-02-11T02:35:13.602Z,48.59
2023-02-11T02:37:51.226Z,48.79
2023-02-11T02:40:28.632Z,48.62
2023-02-11T02:42:56.394Z,48.73
2023-02-11T02:45:23.131Z,48.25
2023-02-11T02:47:49.756Z,48.87
2023-02-11T02:50:20.881Z,49.18
2023-02-11T02:53:04.030Z,48.56
2023-02-11T02:55:42.969Z,48.97
2023-02-11T02:58:40.612Z,49.09
2023-02-11T03:01:19.020Z,47.96
2023-02-11T03:04:14.665Z,49.03
2023-02-11T03:06:41.212Z,47.67
2023-02-11T03:09:16.307Z,48.06
2023-02-11T03:11:43.004Z,47.94
2023-02-11T03:14:14.919Z,48.68
2023-02-11T03:16:43.671Z,48.00
2023-02-11T03:19:24.592Z,47.59
2023-02-11T03:21:53.415Z,46.93
2023-02-11T03:24:30.784Z,47.96
2023-02-11T03:27:02.075Z,47.66
2023-02-11T03:29:54.299Z,47.36
2023-02-11T03:32:38.698Z,46.92
2023-02-11T03:35:20.232Z,46.74
2023-02-11T03:37:52.070Z,47.10
2023-02-11T03:40:26.334Z,46.58
2023-02-11T03:43:21.183Z,46.38
2023-02-11T03:45:50.991Z,47.34
2023-02-11T03:48:23.741Z,47.04
2023-02-11T03:50:52.404Z,47.26
2023-02-11T03:53:21.916Z,48.12
2023-02-11T03:55:52.457Z,47.46
2023-02-11T03:58:19.555Z,46.98
2023-02-11T04:00:46.407Z,47.23
2023-02-11T04:03:13.806Z,47.41
2023-02-11T04:05:40.946Z,48.09
2023-02-11T04:08:07.941Z,46.98
2023-02-11T04:10:34.793Z,46.93
2023-02-11T04:13:01.913Z,47.61
2023-02-11T04:15:28.563Z,48.06
2023-02-11T04:17:55.135Z,47.05
2023-02-11T04:20:21.893Z,46.35
2023-02-11T04:22:48.505Z,46.29
2023-02-11T04:25:15.107Z,45.37
2023-02-11T04:27:41.756Z,46.39
2023-02-11T04:30:09.628Z,48.02
2023-02-11T04:32:36.333Z,47.77
2023-02-11T04:35:03.621Z,46.90
2023-02-11T04:37:30.354Z,46.56
2023-02-11T04:39:57.038Z,46.34
2023-02-11T04:42:24.475Z,46.25
2023-02-11T04:44:51.139Z,45.29
2023-02-11T04:47:17.828Z,44.45
2023-02-11T04:49:44.432Z,44.81
2023-02-11T04:52:11.183Z,46.25
2023-02-11T04:54:37.902Z,46.05
2023-02-11T04:57:04.556Z,46.27
2023-02-11T04:59:31.181Z,45.84
2023-02-11T05:01:58.000Z,45.15
2023-02-11T05:04:24.962Z,45.66
2023-02-11T05:06:51.645Z,46.03
2023-02-11T05:09:18.496Z,46.49
2023-02-11T05:11:45.102Z,47.13
2023-02-11T05:14:11.731Z,46.75
2023-02-11T05:16:38.445Z,46.88
2023-02-11T05:19:05.348Z,46.52
2023-02-11T05:21:32.037Z,45.90
2023-02-11T05:23:58.796Z,46.49
2023-02-11T05:26:25.754Z,46.67
2023-02-11T05:28:52.553Z,46.87
2023-02-11T05:31:19.251Z,47.33
2023-02-11T05:33:46.085Z,47.65
2023-02-11T05:36:13.682Z,47.12
2023-02-11T05:38:40.802Z,47.00
2023-02-11T05:41:07.612Z,46.67
2023-02-11T05:43:35.475Z,48.02
2023-02-11T05:46:03.619Z,48.52
2023-02-11T05:48:30.964Z,47.62
2023-02-11T05:50:57.833Z,47.28
2023-02-11T05:53:24.452Z,47.39
2023-02-11T05:55:51.578Z,47.02
2023-02-11T05:58:18.459Z,47.18
2023-02-11T06:00:45.117Z,47.54
2023-02-11T06:03:11.784Z,47.69
2023-02-11T06:05:39.476Z,47.29
2023-02-11T06:08:06.561Z,47.46
2023-02-11T06:10:33.282Z,47.25
2023-02-11T06:12:59.862Z,48.58
2023-02-11T06:15:26.566Z,48.46
2023-02-11T06:17:53.407Z,49.94
2023-02-11T06:20:20.260Z,49.70
2023-02-11T06:22:47.140Z,49.29
2023-02-11T06:25:14.587Z,48.40
2023-02-11T06:27:41.283Z,48.34
2023-02-11T06:30:08.901Z,48.44
2023-02-11T06:32:43.741Z,48.23
2023-02-11T06:35:12.589Z,47.63
2023-02-11T06:37:40.176Z,46.50
2023-02-11T06:40:07.659Z,46.68
2023-02-11T06:42:36.228Z,46.81
2023-02-11T06:45:03.470Z,47.95
2023-02-11T06:47:30.138Z,48.69
2023-02-11T06:49:56.776Z,48.62
2023-02-11T06:52:23.419Z,47.88
2023-02-11T06:54:49.969Z,47.76
2023-02-11T06:57:16.601Z,47.06
2023-02-11T06:59:43.430Z,47.16
2023-02-11T07:02:10.976Z,47.65
2023-02-11T07:04:38.100Z,48.41
2023-02-11T07:07:04.775Z,48.94
2023-02-11T07:09:31.357Z,49.76
2023-02-11T07:11:58.105Z,48.80
2023-02-11T07:14:24.786Z,48.57
2023-02-11T07:16:51.490Z,47.96
2023-02-11T07:19:18.141Z,47.61
2023-02-11T07:21:44.721Z,48.18
2023-02-11T07:24:11.645Z,47.75
2023-02-11T07:26:38.766Z,47.19
2023-02-11T07:29:05.625Z,47.23
2023-02-11T07:31:33.073Z,47.26
2023-02-11T07:34:01.853Z,47.33
2023-02-11T07:36:30.464Z,47.71
2023-02-11T07:38:57.206Z,47.80
2023-02-11T07:41:25.333Z,46.93
2023-02-11T07:43:52.222Z,46.46
2023-02-11T07:46:26.325Z,46.67
2023-02-11T07:48:53.782Z,46.90
2023-02-11T07:51:26.533Z,46.03
2023-02-11T07:53:53.795Z,45.69
2023-02-11T07:56:21.750Z,46.00
2023-02-11T07:58:48.592Z,45.97
2023-02-11T08:01:25.893Z,46.63
2023-02-11T08:03:53.087Z,46.39
2023-02-11T08:06:21.719Z,46.58
2023-02-11T08:08:49.512Z,46.89
2023-02-11T08:11:28.216Z,48.01
2023-02-11T08:13:56.987Z,48.15
2023-02-11T08:16:35.634Z,48.85
2023-02-11T08:19:07.269Z,48.93
2023-02-11T08:21:33.975Z,48.32
2023-02-11T08:24:01.678Z,49.33
2023-02-11T08:26:29.902Z,49.85
2023-02-11T08:28:57.602Z,48.96
2023-02-11T08:31:27.515Z,49.00
2023-02-11T08:33:55.050Z,49.07
2023-02-11T08:36:23.777Z,51.23
2023-02-11T08:38:50.456Z,50.43
2023-02-11T08:41:18.035Z,49.48
2023-02-11T08:43:46.204Z,50.68
2023-02-11T08:46:15.784Z,50.01
2023-02-11T08:48:43.275Z,50.05
2023-02-11T08:51:31.610Z,52.15
2023-02-11T08:53:59.272Z,51.64
2023-02-11T08:56:26.224Z,51.00
2023-02-11T08:58:53.786Z,49.64
2023-02-11T09:01:24.453Z,50.18
2023-02-11T09:03:51.535Z,48.47
2023-02-11T09:06:18.757Z,47.13
2023-02-11T09:08:49.428Z,46.31
2023-02-11T09:11:18.447Z,46.05
2023-02-11T09:13:45.450Z,46.81
2023-02-11T09:16:23.338Z,46.79
2023-02-11T09:18:50.862Z,46.01
2023-02-11T09:21:19.326Z,45.54
2023-02-11T09:23:47.957Z,45.99
2023-02-11T09:26:17.068Z,46.60
2023-02-11T09:28:43.738Z,46.44
2023-02-11T09:31:12.904Z,47.34
2023-02-11T09:33:42.277Z,47.14
2023-02-11T09:36:09.328Z,46.57
2023-02-11T09:38:35.925Z,46.36
2023-02-11T09:41:07.608Z,46.80
2023-02-11T09:43:45.110Z,46.46
2023-02-11T09:46:17.252Z,46.56
2023-02-11T09:48:46.700Z,45.99
2023-02-11T09:51:20.843Z,45.49
2023-02-11T09:53:57.656Z,44.82
2023-02-11T09:56:26.831Z,45.99
2023-02-11T09:58:53.652Z,44.88
2023-02-11T10:01:38.054Z,45.45
2023-02-11T10:04:07.771Z,46.09
2023-02-11T10:06:46.890Z,44.71
2023-02-11T10:09:26.167Z,43.76
2023-02-11T10:12:11.339Z,43.87
2023-02-11T10:15:02.842Z,42.94
2023-02-11T10:18:04.534Z,42.61
2023-02-11T10:20:34.147Z,41.74
2023-02-11T10:23:08.577Z,40.75
2023-02-11T10:25:45.215Z,41.36
2023-02-11T10:28:15.834Z,40.81
2023-02-11T10:31:07.081Z,41.54
2023-02-11T10:33:40.046Z,41.34
2023-02-11T10:36:07.183Z,40.89
2023-02-11T10:38:33.961Z,40.65
2023-02-11T10:41:00.618Z,40.46
2023-02-11T10:43:30.830Z,39.52
2023-02-11T10:45:58.888Z,39.19
2023-02-11T10:48:49.522Z,38.67
2023-02-11T10:51:28.386Z,39.82
2023-02-11T10:54:04.211Z,40.99
2023-02-11T10:56:34.363Z,41.30
2023-02-11T10:59:34.609Z,41.18
2023-02-11T11:02:06.114Z,41.25
2023-02-11T11:04:42.544Z,40.55
2023-02-11T11:07:18.282Z,40.94
2023-02-11T11:09:48.224Z,41.05
2023-02-11T11:12:58.367Z,40.30
2023-02-11T11:15:31.162Z,40.29
2023-02-11T11:18:23.279Z,40.75
2023-02-11T11:20:59.701Z,40.41
2023-02-11T11:23:29.554Z,39.63
2023-02-11T11:26:16.291Z,39.40
2023-02-11T11:29:08.138Z,39.13
2023-02-11T11:31:45.146Z,40.38
2023-02-11T11:34:48.490Z,40.04
2023-02-11T11:37:21.499Z,39.23
2023-02-11T11:40:13.885Z,39.82
2023-02-11T11:42:41.082Z,39.61
2023-02-11T11:45:19.733Z,38.85
2023-02-11T11:48:10.952Z,38.77
2023-02-11T11:50:43.552Z,39.96
2023-02-11T11:53:23.467Z,40.31
2023-02-11T11:56:09.291Z,38.51
2023-02-11T11:58:35.959Z,40.06
2023-02-11T12:01:11.295Z,40.29
2023-02-11T12:04:25.615Z,38.68
2023-02-11T12:07:19.888Z,39.91
2023-02-11T12:09:55.577Z,38.61
2023-02-11T12:13:03.161Z,40.07
2023-02-11T12:15:36.678Z,39.40
2023-02-11T12:18:06.121Z,38.50
2023-02-11T12:20:58.751Z,38.32
2023-02-11T12:23:59.188Z,38.28
2023-02-11T12:27:10.663Z,37.56
2023-02-11T12:30:24.835Z,36.58
2023-02-11T12:33:21.060Z,36.66
2023-02-11T12:35:56.131Z,37.42
2023-02-11T12:42:35.486Z,36.53
2023-02-11T12:45:16.729Z,37.45
2023-02-11T12:48:01.006Z,37.24
2023-02-11T12:50:36.825Z,36.45
2023-02-11T12:53:41.952Z,37.42
2023-02-11T12:56:14.959Z,37.10
2023-02-11T12:58:45.722Z,37.23
2023-02-11T13:01:27.915Z,36.90
2023-02-11T13:04:48.195Z,36.50
2023-02-11T13:07:21.636Z,36.23
2023-02-11T13:10:02.131Z,36.03
2023-02-11T13:12:50.834Z,37.05
2023-02-11T13:15:17.717Z,36.49
2023-02-11T13:17:53.851Z,36.57
2023-02-11T13:20:32.532Z,36.25
2023-02-11T13:23:12.741Z,36.91
2023-02-11T13:25:53.224Z,36.67
2023-02-11T13:28:56.440Z,36.99
2023-02-11T13:31:27.100Z,36.14
2023-02-11T13:33:53.921Z,36.18
2023-02-11T13:36:33.190Z,35.59
2023-02-11T13:39:03.774Z,35.75
2023-02-11T13:41:34.553Z,36.42
2023-02-11T13:44:10.938Z,35.97
2023-02-11T13:46:59.630Z,34.76
2023-02-11T13:49:33.318Z,35.74
2023-02-11T13:52:03.330Z,35.96
2023-02-11T13:54:34.111Z,35.83
2023-02-11T13:57:26.187Z,34.56
2023-02-11T13:59:58.936Z,34.80
2023-02-11T14:02:47.133Z,34.82
2023-02-11T14:05:41.566Z,35.27
2023-02-11T14:08:29.846Z,34.98
2023-02-11T14:11:08.437Z,35.73
2023-02-11T14:13:37.133Z,34.45
2023-02-11T14:16:10.243Z,35.41
2023-02-11T14:18:39.351Z,35.71
2023-02-11T14:21:23.095Z,34.98
2023-02-11T14:23:53.346Z,35.62
2023-02-11T14:26:20.136Z,35.57
2023-02-11T14:29:19.980Z,36.70
2023-02-11T14:32:25.092Z,36.55
2023-02-11T14:35:18.352Z,37.13
2023-02-11T14:38:07.466Z,37.21
2023-02-11T14:40:49.342Z,37.76
2023-02-11T14:43:24.574Z,37.01
2023-02-11T14:45:55.864Z,38.23
2023-02-11T14:48:29.792Z,37.49
2023-02-11T14:51:13.676Z,37.77
2023-02-11T14:53:45.761Z,37.83
2023-02-11T14:56:27.934Z,38.13
2023-02-11T14:58:55.751Z,38.21
2023-02-11T15:01:33.952Z,38.28
2023-02-11T15:04:05.394Z,38.18
2023-02-11T15:06:41.268Z,38.09
2023-02-11T15:09:25.596Z,38.83
2023-02-11T15:11:52.794Z,38.89
2023-02-11T15:14:24.517Z,38.54
2023-02-11T15:16:53.871Z,38.29
2023-02-11T15:19:26.799Z,38.80
2023-02-11T15:21:54.200Z,39.40
2023-02-11T15:24:32.218Z,38.83
2023-02-11T15:27:00.321Z,38.43
2023-02-11T15:29:42.311Z,38.16
2023-02-11T15:32:23.312Z,38.75
2023-02-11T15:34:52.798Z,38.29
2023-02-11T15:37:30.196Z,39.03
2023-02-11T15:40:15.155Z,38.47
2023-02-11T15:42:56.181Z,39.50
2023-02-11T15:45:46.082Z,39.21
2023-02-11T15:48:16.649Z,39.27
2023-02-11T15:50:51.369Z,39.11
2023-02-11T15:53:23.319Z,38.86
2023-02-11T15:55:52.986Z,39.12
2023-02-11T15:58:25.205Z,39.38
2023-02-11T16:00:59.944Z,41.14
2023-02-11T16:03:32.511Z,41.10
2023-02-11T16:06:17.612Z,39.27
2023-02-11T16:09:01.043Z,38.88
2023-02-11T16:11:33.329Z,39.48
2023-02-11T16:14:01.997Z,39.15
2023-02-11T16:16:34.668Z,39.04
2023-02-11T16:19:05.179Z,39.31
2023-02-11T16:21:36.310Z,39.62
2023-02-11T16:24:03.965Z,40.41
2023-02-11T16:26:30.556Z,40.05
2023-02-11T16:29:18.689Z,40.24
2023-02-11T16:31:47.636Z,40.15
2023-02-11T16:34:20.921Z,40.74
2023-02-11T16:36:48.742Z,40.05
2023-02-11T16:39:16.823Z,39.95
2023-02-11T16:41:43.643Z,40.17
2023-02-11T16:44:10.312Z,39.16
2023-02-11T16:46:37.644Z,39.54
2023-02-11T16:49:27.415Z,40.11
2023-02-11T16:51:58.532Z,39.84
2023-02-11T16:54:25.149Z,39.74
2023-02-11T16:56:51.880Z,39.62
2023-02-11T16:59:18.517Z,39.32
2023-02-11T17:01:45.801Z,39.08
2023-02-11T17:04:33.686Z,41.06
2023-02-11T17:07:00.327Z,41.48
2023-02-11T17:09:30.531Z,39.86
2023-02-11T17:11:57.839Z,39.88
2023-02-11T17:14:24.663Z,39.25
2023-02-11T17:16:51.742Z,38.71
2023-02-11T17:19:21.121Z,37.38
2023-02-11T17:21:51.259Z,36.74
2023-02-11T17:24:19.451Z,36.11
2023-02-11T17:26:46.665Z,35.52
2023-02-11T17:29:19.396Z,37.13
2023-02-11T17:31:46.192Z,35.60
2023-02-11T17:34:13.048Z,35.71
2023-02-11T17:36:41.466Z,35.33
2023-02-11T17:39:08.479Z,35.57
2023-02-11T17:41:37.145Z,35.90
2023-02-11T17:44:04.585Z,35.70
2023-02-11T17:46:32.282Z,35.24
2023-02-11T17:48:59.690Z,34.92
2023-02-11T17:51:35.023Z,35.28
2023-02-11T17:54:14.298Z,36.14
2023-02-11T17:56:41.915Z,36.56
2023-02-11T17:59:10.357Z,36.35
2023-02-11T18:01:38.714Z,35.88
2023-02-11T18:04:06.773Z,36.21
2023-02-11T18:06:34.187Z,35.55
2023-02-11T18:09:04.192Z,35.30
2023-02-11T18:11:33.323Z,35.57
2023-02-11T18:14:01.697Z,35.65
2023-02-11T18:16:30.078Z,35.76
2023-02-11T18:19:03.568Z,35.28
2023-02-11T18:21:30.502Z,35.11
2023-02-11T18:24:06.426Z,33.96
2023-02-11T18:26:34.415Z,33.94
2023-02-11T18:29:01.366Z,35.02
2023-02-11T18:31:29.066Z,34.64
2023-02-11T18:33:55.935Z,34.44
2023-02-11T18:36:25.432Z,34.23
2023-02-11T18:38:53.713Z,33.71
2023-02-11T18:41:20.843Z,33.09
2023-02-11T18:43:47.502Z,33.44
2023-02-11T18:46:15.190Z,34.48
2023-02-11T18:48:42.310Z,33.89
2023-02-11T18:51:11.399Z,34.03
2023-02-11T18:53:38.082Z,33.96
2023-02-11T18:56:13.886Z,34.58
2023-02-11T18:58:40.786Z,35.12
2023-02-11T19:01:11.739Z,34.88
2023-02-11T19:03:38.398Z,33.91
2023-02-11T19:06:05.319Z,33.55
2023-02-11T19:08:32.113Z,33.77
2023-02-11T19:10:58.848Z,33.62
2023-02-11T19:13:25.817Z,34.23
2023-02-11T19:15:52.653Z,35.60
2023-02-11T19:18:19.432Z,35.12
2023-02-11T19:20:46.163Z,34.69
2023-02-11T19:23:12.739Z,34.51
2023-02-11T19:25:46.620Z,34.56
2023-02-11T19:28:13.931Z,33.90
2023-02-11T19:30:41.028Z,34.47
2023-02-11T19:33:10.046Z,34.43
2023-02-11T19:35:36.886Z,34.71
2023-02-11T19:38:06.354Z,34.21
2023-02-11T19:40:33.267Z,33.96
2023-02-11T19:43:00.008Z,33.96
2023-02-11T19:45:27.092Z,34.56
2023-02-11T19:47:57.848Z,34.58
2023-02-11T19:50:24.647Z,33.87
2023-02-11T19:52:51.299Z,33.73
2023-02-11T19:55:20.318Z,33.64
2023-02-11T19:57:47.025Z,32.99
2023-02-11T20:00:14.232Z,33.83
2023-02-11T20:02:40.900Z,33.66
2023-02-11T20:05:07.925Z,34.59
2023-02-11T20:07:35.289Z,34.01
2023-02-11T20:10:02.998Z,34.63
2023-02-11T20:12:29.649Z,34.72
2023-02-11T20:14:56.348Z,34.99
2023-02-11T20:17:23.035Z,35.17
2023-02-11T20:19:49.845Z,35.42
2023-02-11T20:22:16.472Z,36.17
2023-02-11T20:24:43.157Z,36.25
2023-02-11T20:27:11.532Z,36.04
2023-02-11T20:29:38.867Z,35.15
2023-02-11T20:32:06.657Z,34.51
2023-02-11T20:34:34.441Z,34.53
2023-02-11T20:37:02.298Z,34.01
2023-02-11T20:39:29.021Z,33.78
2023-02-11T20:41:57.665Z,33.27
2023-02-11T20:44:24.442Z,33.28
2023-02-11T20:46:51.722Z,34.37
2023-02-11T20:49:21.044Z,34.12
2023-02-11T20:51:48.567Z,33.33
2023-02-11T20:54:17.870Z,33.86
2023-02-11T20:56:47.962Z,32.22
2023-02-11T20:59:16.664Z,33.18
2023-02-11T21:01:46.368Z,32.91
2023-02-11T21:04:17.305Z,31.25
2023-02-11T21:06:56.299Z,31.10
2023-02-11T21:09:25.457Z,31.40
2023-02-11T21:11:53.576Z,30.51
2023-02-11T21:14:22.586Z,31.08
2023-02-11T21:16:49.781Z,31.08
2023-02-11T21:19:16.394Z,30.05
2023-02-11T21:21:43.242Z,30.28
2023-02-11T21:24:12.871Z,30.45
2023-02-11T21:26:40.563Z,29.93
2023-02-11T21:29:08.631Z,29.72
2023-02-11T21:31:36.529Z,28.66
2023-02-11T21:34:04.288Z,29.15
2023-02-11T21:36:30.997Z,29.88
2023-02-11T21:39:04.395Z,31.11
2023-02-11T21:41:31.034Z,29.34
2023-02-11T21:43:57.719Z,30.12
2023-02-11T21:46:24.926Z,31.12
2023-02-11T21:48:52.311Z,30.10
2023-02-11T21:51:21.696Z,29.64
2023-02-11T21:53:48.494Z,29.63
2023-02-11T21:56:17.678Z,28.79
2023-02-11T21:58:45.749Z,28.77
2023-02-11T22:01:20.710Z,29.87
2023-02-11T22:03:47.918Z,30.17
2023-02-11T22:06:17.836Z,29.73
2023-02-11T22:08:44.531Z,29.56
2023-02-11T22:11:12.965Z,29.23
2023-02-11T22:13:40.630Z,29.37
2023-02-11T22:16:11.563Z,30.43
2023-02-11T22:18:39.042Z,29.98
2023-02-11T22:21:12.273Z,30.00
2023-02-11T22:23:39.694Z,29.95
2023-02-11T22:26:09.609Z,30.73
2023-02-11T22:28:38.869Z,30.26
2023-02-11T22:31:06.178Z,30.20
2023-02-11T22:33:33.105Z,31.91
2023-02-11T22:36:02.582Z,30.57
2023-02-11T22:38:31.231Z,30.64
2023-02-11T22:40:59.190Z,31.11
2023-02-11T22:43:26.934Z,31.00
2023-02-11T22:45:56.450Z,31.52
2023-02-11T22:48:23.387Z,31.68
2023-02-11T22:50:50.064Z,32.65
2023-02-11T22:53:16.715Z,32.81
2023-02-11T22:55:43.582Z,33.56
2023-02-11T22:58:10.809Z,33.71
2023-02-11T23:00:41.770Z,33.30
2023-02-11T23:03:10.230Z,33.67
2023-02-11T23:05:43.121Z,34.06
2023-02-11T23:08:11.250Z,33.61
2023-02-11T23:10:39.784Z,33.71
2023-02-11T23:13:07.460Z,34.06
2023-02-11T23:15:34.467Z,34.49
2023-02-11T23:18:01.145Z,34.62
2023-02-11T23:20:27.798Z,34.28
2023-02-11T23:22:54.413Z,35.20
2023-02-11T23:25:21.192Z,34.75
2023-02-11T23:27:47.889Z,34.32
2023-02-11T23:30:14.788Z,34.53
2023-02-11T23:32:41.438Z,33.90
2023-02-11T23:35:08.302Z,34.62
2023-02-11T23:37:35.137Z,34.68
2023-02-11T23:40:02.223Z,34.78
2023-02-11T23:42:29.235Z,34.92
2023-02-11T23:44:55.937Z,35.78
2023-02-11T23:47:22.580Z,35.46
2023-02-11T23:49:49.171Z,35.69
2023-02-11T23:52:15.859Z,35.58
2023-02-11T23:54:43.428Z,35.30
2023-02-11T23:57:10.132Z,34.62
2023-02-11T23:59:36.905Z,35.64
